Johan Hjort — LDGJ — position and weather

sailwx.info

Track history (hours):
 
Tides and Currents Weather Stations Pressure Air Temp Water Temp Dewpoint Dewpoint Depression Visibility Wind Speed Wind Dir Waves Ship Positions

Oceanographic research ship Johan Hjort (Norway)

Detailed information on ship capabilities available from University of Delaware's Ocean Information Center and ARCUS's ALIAS (Arctic Logistics Information and Support) project.

Last reported at 2019-Aug-20 10:27 UTC. Time now 2019-Aug-20 10:43 UTC.
Position N 69°39' E 018°58'.

MMSI: 257139000.

Date/timePositionNaut miles runAvg speedWind from/ knotsBaromVisibWave heightAir tempDewpointWater temp
2019-Aug-20 10:27N 69°39' E 018°58'0 0.0
2019-Aug-20 10:00N 69°39' E 018°58'31171.3
2019-Aug-20 10:00N 69°36' E 018°54'3 6.5 190 / 81005.0 13.0 7.1 8.8
2019-Aug-20 09:30N 69°39' E 018°58'0 0.0
2019-Aug-20 09:00N 69°39' E 018°58'31464.1
2019-Aug-20 09:00N 69°36' E 018°54'3 6.5 180 / 101004.6 13.3 7.3 8.8
2019-Aug-20 08:30N 69°39' E 018°58'0 0.0
2019-Aug-20 08:00N 69°39' E 018°58'31464.1
2019-Aug-20 08:00N 69°36' E 018°54'3 6.5 190 / 101004.1 12.1 7.0 8.8
2019-Aug-20 07:30N 69°39' E 018°58'0 0.0
2019-Aug-20 07:00N 69°39' E 018°58'31673.3
2019-Aug-20 07:00N 69°36' E 018°54'3 6.5 200 / 101003.3 12.0 7.3 9.3
2019-Aug-20 06:30N 69°39' E 018°58'0 0.0
2019-Aug-20 06:00N 69°39' E 018°58'31952.2
2019-Aug-20 06:00N 69°36' E 018°54'3 6.5 240 / 41002.8 11.8 8.2 9.0
2019-Aug-20 05:30N 69°39' E 018°58'0 0.0
2019-Aug-20 05:00N 69°39' E 018°58'31673.3
2019-Aug-20 05:00N 69°36' E 018°54'3 6.5 210 / 41002.3 11.0 8.0 8.9
2019-Aug-20 04:30N 69°39' E 018°58'0 0.0
2019-Aug-20 04:00N 69°39' E 018°58'0 0.0
2019-Aug-20 03:29N 69°39' E 018°58'3 6.5
2019-Aug-20 03:00N 69°36' E 018°54'35856.5 270 / 41001.1 10.6 8.2 9.1
2019-Aug-20 02:59N 69°39' E 018°58'0 0.0
2019-Aug-20 02:29N 69°39' E 018°58'3 6.5
2019-Aug-20 02:00N 69°36' E 018°54'33904.4 260 / 61000.5 11.0 8.7 9.5
2019-Aug-20 01:59N 69°39' E 018°58'0 0.0
2019-Aug-20 01:29N 69°39' E 018°58'3 6.5
2019-Aug-20 01:00N 69°36' E 018°54'32342.6 290 / 2999.6 11.0 9.0 8.9
2019-Aug-20 00:59N 69°39' E 018°58'0 0.0
2019-Aug-20 00:29N 69°39' E 018°58'3 6.5
2019-Aug-20 00:00N 69°36' E 018°54'31952.2 300 / 4998.5 11.5 9.4 9.3
2019-Aug-19 23:59N 69°39' E 018°58'0 0.0
2019-Aug-19 23:29N 69°39' E 018°58'3 6.5
2019-Aug-19 23:00N 69°36' E 018°54'31301.5 200 / 4997.5 11.6 9.6 9.3
2019-Aug-19 22:59N 69°39' E 018°58'0 0.0
2019-Aug-19 22:29N 69°39' E 018°58'3 6.5
2019-Aug-19 22:00N 69°36' E 018°54'31171.3 280 / 6996.6 11.5 9.6 8.9
2019-Aug-19 21:59N 69°39' E 018°58'0 0.0
2019-Aug-19 21:29N 69°39' E 018°58'0 0.0
2019-Aug-19 20:59N 69°39' E 018°58'0 0.0
2019-Aug-19 20:29N 69°39' E 018°58'3 6.6
2019-Aug-19 20:00N 69°36' E 018°54'3901.0 280 / 2995.5 12.510.7 9.1
2019-Aug-19 19:59N 69°39' E 018°58'0 0.0
2019-Aug-19 19:29N 69°39' E 018°58'3 6.6
2019-Aug-19 19:00N 69°36' E 018°54'3836.6 060 995.2 12.510.7 9.1
2019-Aug-19 18:59N 69°39' E 018°58'0 0.0
2019-Aug-19 18:29N 69°39' E 018°58'3 6.6
2019-Aug-19 18:00N 69°36' E 018°54'3689.0 030 / 2995.3 12.410.5 9.3
2019-Aug-19 17:59N 69°39' E 018°58'0 0.0
2019-Aug-19 17:29N 69°39' E 018°58'3 6.6
2019-Aug-19 17:00N 69°36' E 018°54'3650.7 060 / 2995.7 13.010.8 9.3
2019-Aug-19 16:59N 69°39' E 018°58'0 0.0
2019-Aug-19 16:29N 69°39' E 018°58'0 0.0
2019-Aug-19 15:59N 69°39' E 018°58'0 0.0
2019-Aug-19 15:29N 69°39' E 018°58'3 6.6
2019-Aug-19 15:00N 69°36' E 018°54'3532.4 050 996.6 13.010.5 9.2
2019-Aug-19 14:59N 69°39' E 018°58'0 0.0
2019-Aug-19 14:29N 69°39' E 018°58'3 6.6
2019-Aug-19 14:00N 69°36' E 018°54'3509.3 100 / 2997.0 13.311.0 9.4
2019-Aug-19 13:59N 69°39' E 018°58'0 0.0
2019-Aug-19 13:29N 69°39' E 018°58'3 6.6
2019-Aug-19 13:00N 69°36' E 018°54'3509.3 060 / 2997.5 13.010.7 9.1
2019-Aug-19 12:59N 69°39' E 018°58'0 0.0
2019-Aug-19 12:29N 69°39' E 018°58'3 6.6
2019-Aug-19 12:00N 69°36' E 018°54'3450.5 200 998.2 13.210.9 9.0
2019-Aug-19 11:59N 69°39' E 018°58'0 0.0
2019-Aug-19 11:29N 69°39' E 018°58'3 6.6
2019-Aug-19 11:00N 69°36' E 018°54'3433.8 020 998.6 12.510.2 8.9
2019-Aug-19 10:59N 69°39' E 018°58'0 0.0
2019-Aug-19 10:29N 69°39' E 018°58'3 6.6
2019-Aug-19 10:00N 69°36' E 018°54'3390.4 040 / 6999.0 11.4 9.3 8.8
2019-Aug-19 09:59N 69°39' E 018°58'0 0.0
2019-Aug-19 09:30N 69°39' E 018°58'1 1.1
2019-Aug-19 09:00N 69°39' E 018°58'0 0.0
2019-Aug-19 08:28N 69°39' E 018°58'0 0.0
2019-Aug-19 07:58N 69°39' E 018°58'0 0.0
2019-Aug-19 07:28N 69°39' E 018°58'4 7.9
2019-Aug-19 07:00N 69°36' E 018°54'4176.9 050 / 41001.1 12.410.4 9.0
2019-Aug-19 06:58N 69°39' E 018°58'0 0.0
2019-Aug-19 06:28N 69°39' E 018°58'4 7.9
2019-Aug-19 06:00N 69°36' E 018°54'4171.8 030 / 41001.2 11.9 9.9 8.8
2019-Aug-19 05:58N 69°39' E 018°58'0 0.1
2019-Aug-19 05:28N 69°40' E 018°58'4 8.1
2019-Aug-19 05:00N 69°36' E 018°54'4158.7 040 / 61001.6 12.510.0 8.8
2019-Aug-19 04:58N 69°40' E 018°58'0 0.0
2019-Aug-19 04:28N 69°40' E 018°58'4 8.1
2019-Aug-19 04:00N 69°36' E 018°54'4155.1 040 / 41002.0 12.610.9 8.9
2019-Aug-19 03:58N 69°40' E 018°58'0 0.0
2019-Aug-19 03:28N 69°40' E 018°58'4 8.1
2019-Aug-19 03:00N 69°36' E 018°54'4151.7 030 1002.2 12.210.6 9.0
2019-Aug-19 02:58N 69°40' E 018°58'0 0.0
2019-Aug-19 02:28N 69°40' E 018°58'1 1.1
2019-Aug-19 02:00N 69°40' E 018°59'42596.7
2019-Aug-19 02:00N 69°36' E 018°54'918.5 020 / 81002.1 12.010.4 8.9
2019-Aug-19 01:30N 69°45' E 019°03'510.6
2019-Aug-19 01:00N 69°50' E 018°59'2217.2
2019-Aug-19 01:00N 69°48' E 018°54'611.7 180 / 21002.6 12.511.0 8.1
2019-Aug-19 00:30N 69°53' E 018°48'510.7
2019-Aug-19 00:00N 69°56' E 018°34'2645.5
2019-Aug-19 00:00N 69°54' E 018°30'5 9.7 200 / 101002.5 11.410.0 9.2
2019-Aug-18 23:30N 69°57' E 018°18'510.4
2019-Aug-18 23:00N 70°01' E 018°12'1829.1
2019-Aug-18 23:00N 70°00' E 018°12'713.4 210 / 141001.7 11.610.110.0
2019-Aug-18 22:30N 70°06' E 018°04'510.8
2019-Aug-18 22:00N 70°11' E 017°56'5386.7
2019-Aug-18 22:00N 70°06' E 017°54'918.8 170 / 121001.2 11.5 9.9 9.3
2019-Aug-18 21:29N 70°15' E 017°47'510.0
2019-Aug-18 21:00N 70°19' E 017°40'2171.8
2019-Aug-18 21:00N 70°18' E 017°36'611.5 130 / 161000.7 13.0 9.4 9.0
2019-Aug-18 20:30N 70°24' E 017°33'5 9.8
2019-Aug-18 20:00N 70°28' E 017°25'44574.9
2019-Aug-18 20:00N 70°24' E 017°24'817.0 090 / 161000.5 12.0 9.010.1
2019-Aug-18 19:30N 70°32' E 017°17'5 9.9
2019-Aug-18 19:00N 70°36' E 017°09'167.4
2019-Aug-18 19:00N 70°36' E 017°06'9 9.1 090 / 141000.0 12.1 9.5 9.8
2019-Aug-18 18:00N 70°44' E 016°54'2351.9
2019-Aug-18 18:00N 70°42' E 016°54'8 8.4 090 / 101000.6 11.0 9.310.0
2019-Aug-18 17:00N 70°48' E 016°36'1313.4 090 / 141000.2 10.9 9.3 9.9
2019-Aug-18 16:00N 71°00' E 016°18'8 8.4 090 / 101000.3 10.9 9.610.0
2019-Aug-18 15:00N 71°06' E 016°00'1313.3 060 / 101000.1 9.8 8.6 9.9
2019-Aug-18 14:00N 71°18' E 015°42'8 8.3 060 / 141000.2 9.5 8.310.0
2019-Aug-18 13:00N 71°24' E 015°24'7 7.1 050 / 191000.5 9.0 7.4 9.6
2019-Aug-18 12:00N 71°30' E 015°12'1313.3 040 / 211000.6 8.8 7.2 9.5
2019-Aug-18 11:00N 71°42' E 014°54'8 8.2 040 / 231000.5 8.5 6.7 8.9
2019-Aug-18 10:00N 71°48' E 014°36'1313.2 040 / 251000.7 8.5 6.3 8.9
2019-Aug-18 09:00N 72°00' E 014°18'8 8.2 040 / 271001.1 8.6 5.9 9.9
2019-Aug-18 08:00N 72°06' E 014°00'8 8.2 040 / 291001.5 8.1 5.4 9.9
2019-Aug-18 07:00N 72°12' E 013°42'1312.5 050 / 271002.1 7.8 4.9 9.1
2019-Aug-18 06:00N 72°24' E 013°30'9 9.4 050 / 291002.8 7.7 3.8 9.2
2019-Aug-18 05:00N 72°30' E 013°06'8 8.1 050 / 291003.7 7.8 3.5 8.9
2019-Aug-18 04:00N 72°36' E 012°48'1313.1 050 / 291004.4 7.8-18.4 8.9
2019-Aug-18 03:00N 72°48' E 012°30'8 8.0 050 / 271005.3 7.6 3.3 8.9
2019-Aug-18 02:00N 72°54' E 012°12'9 9.2 060 / 251006.3 7.5 2.6 8.5
2019-Aug-18 01:00N 73°00' E 011°48'1313.1 050 / 211006.3 7.7 2.5 8.7
2019-Aug-18 00:00N 73°12' E 011°30'9 9.2 050 / 191007.7 7.2 2.3 8.8
2019-Aug-17 23:00N 73°18' E 011°06'1313.1 040 / 171008.2 6.9 1.6 8.7
2019-Aug-17 22:00N 73°30' E 010°48'9 9.1 040 / 161008.6 6.0 2.8 8.7
2019-Aug-17 21:00N 73°36' E 010°24'9 9.0 040 / 141008.7 6.7 0.8 8.8
2019-Aug-17 20:00N 73°42' E 010°00'1413.7 040 / 121008.7 6.7-0.1 8.9
2019-Aug-17 19:00N 73°54' E 009°36'9 8.9 030 / 101009.1 6.5-0.0 8.8
2019-Aug-17 18:00N 74°00' E 009°12'1413.7 030 / 101009.2 6.2 0.6 8.1
2019-Aug-17 17:00N 74°12' E 008°48'9 8.9 020 / 101009.1 5.9 1.4 8.3
2019-Aug-17 16:00N 74°18' E 008°24'1010.1 340 / 101008.8 6.9-0.1 8.2
2019-Aug-17 15:00N 74°24' E 007°54'0 0.0 340 / 81009.0 6.1 0.6 8.2
2019-Aug-17 14:00N 74°24' E 007°54'8 8.1 320 / 81009.0 6.0-0.1 8.2
2019-Aug-17 13:00N 74°24' E 008°24'1010.0 320 / 81009.0 5.9 0.4 8.1
2019-Aug-17 12:00N 74°30' E 008°54'0 0.0 320 / 121008.7 6.2 0.7 8.7
2019-Aug-17 11:00N 74°30' E 008°54'1111.4 320 / 121008.7 6.0-0.1 8.6
2019-Aug-17 10:00N 74°24' E 009°30'8 7.7 330 / 141008.2 5.8 1.3 8.4
2019-Aug-17 09:00N 74°30' E 009°48'8 7.7 320 / 121008.1 6.0 3.2 8.4
2019-Aug-17 08:00N 74°24' E 010°06'1010.0 260 / 101007.7 6.0 2.6 8.1
2019-Aug-17 07:00N 74°30' E 010°36'6 6.2 260 / 81007.6 5.4 3.3 7.9
2019-Aug-17 06:00N 74°24' E 010°42'0 0.0 270 / 121007.3 5.4 2.3 7.8
2019-Aug-17 05:00N 74°24' E 010°42'1010.0 260 / 101007.3 6.0 0.5 7.9
2019-Aug-17 04:00N 74°30' E 011°12'9 8.8 270 / 8 5.7 0.6 7.8
2019-Aug-17 03:00N 74°24' E 011°36'6 6.2 290 / 101006.7 5.7-0.3 7.9
2019-Aug-17 02:00N 74°30' E 011°42'1111.4 270 / 101007.2 5.7-0.3 8.1
2019-Aug-17 01:00N 74°24' E 012°18'2 1.6 290 / 121007.0 5.5 1.0 8.2
2019-Aug-17 00:00N 74°24' E 012°24'8 7.7 280 / 101006.7 5.2 1.0 8.3
2019-Aug-16 23:00N 74°30' E 012°42'1111.2 290 / 121006.7 5.7-0.4 7.8
2019-Aug-16 22:00N 74°30' E 013°24'0 0.0 290 / 121006.3 5.9-1.5 7.8
2019-Aug-16 21:00N 74°30' E 013°24'1010.0 300 / 141006.6 5.6-0.9 7.9
2019-Aug-16 20:00N 74°24' E 013°54'8 8.1 300 / 121006.1 5.8-0.0 7.9
2019-Aug-16 19:00N 74°24' E 014°24'6 6.0 310 / 141005.8 6.0-0.4 8.8
2019-Aug-16 18:00N 74°30' E 014°24'10 9.6 290 / 121005.6 5.9 0.2 8.7
2019-Aug-16 17:00N 74°30' E 015°00'7 6.8 290 / 121005.1 6.1-0.0 9.1
2019-Aug-16 16:00N 74°24' E 015°12'7 6.8 280 / 141004.9 6.2-0.2 9.0
2019-Aug-16 15:00N 74°30' E 015°24'2 1.6 280 / 141004.8 6.0-1.2 8.5
2019-Aug-16 14:00N 74°30' E 015°30'6 6.0 280 / 141004.6 5.8-2.1 8.3
2019-Aug-16 13:00N 74°24' E 015°30'9 8.8 280 / 161004.3 5.5-0.6 8.2
2019-Aug-16 12:00N 74°30' E 015°54'8 7.7 280 / 141004.2 5.5-1.4 6.8
2019-Aug-16 11:00N 74°24' E 016°12'5 4.8 280 / 161003.8 5.3 0.1 6.9
2019-Aug-16 10:00N 74°24' E 016°30'6771.9 280 / 141003.6 5.9 1.2 6.8
2019-Aug-16 09:59N 74°30' E 016°33'3 6.0
2019-Aug-16 09:26N 74°30' E 016°45'4 9.0
2019-Aug-16 09:00N 74°30' E 016°60'6419.8
2019-Aug-16 09:00N 74°24' E 016°54'714.1 270 / 121003.5 4.3 2.8 4.2
2019-Aug-16 08:30N 74°30' E 017°07'3 6.0
2019-Aug-16 08:00N 74°30' E 017°18'2129.5
2019-Aug-16 08:00N 74°30' E 017°12'5 9.8 220 / 101003.1 4.7 3.2 3.7
2019-Aug-16 07:30N 74°30' E 017°30'510.6
2019-Aug-16 07:00N 74°30' E 017°50'056.2
2019-Aug-16 07:00N 74°30' E 017°48'612.1 210 / 141003.1 4.7 2.7 3.3
2019-Aug-16 06:30N 74°30' E 018°10'510.4
2019-Aug-16 06:00N 74°30' E 018°30'1 2.3
2019-Aug-16 05:30N 74°29' E 018°33'4 8.3
2019-Aug-16 05:00N 74°25' E 018°41'2525.8
2019-Aug-16 05:00N 74°24' E 018°36'4 8.3 240 / 141003.7 5.0 2.8 3.5
2019-Aug-16 04:30N 74°22' E 018°49'4 9.1
2019-Aug-16 04:00N 74°18' E 018°59'1116.3
2019-Aug-16 04:00N 74°18' E 018°54'510.6 240 / 141003.7 4.9 2.4 3.5
2019-Aug-16 03:30N 74°15' E 019°10'2 4.6
2019-Aug-16 03:00N 74°13' E 019°12'2185.3
2019-Aug-16 03:00N 74°12' E 019°06'2 5.0 240 / 121003.8 5.1 3.0 3.1
2019-Aug-16 02:30N 74°10' E 019°11'4 8.7
2019-Aug-16 02:00N 74°06' E 019°12'61550.2
2019-Aug-16 02:00N 74°00' E 019°12'1 1.7 250 / 141004.2 5.0 2.1 3.9
2019-Aug-16 01:30N 74°01' E 019°13'713.3
2019-Aug-16 01:00N 73°54' E 019°12'62678.1 270 / 141004.3 5.7 2.2 4.5
2019-Aug-16 00:59N 73°60' E 019°13'1212.0
2019-Aug-16 00:00N 73°48' E 019°12'2 4.3 280 / 171004.2 6.5 1.7 7.1
2019-Aug-15 23:28N 73°50' E 019°16'817.2
2019-Aug-15 23:00N 73°42' E 019°12'6 6.2 290 / 161004.2 6.2 2.8 7.3
2019-Aug-15 22:00N 73°36' E 019°18'1212.0 270 / 161004.0 5.8 4.1 8.2
2019-Aug-15 21:00N 73°24' E 019°18'0 0.0 250 / 171004.2 7.4 3.8 8.5
2019-Aug-15 20:00N 73°24' E 019°18'6 6.0 260 / 141004.4 7.0 4.4 8.4
2019-Aug-15 19:00N 73°18' E 019°18'6 6.2 270 / 141004.6 7.2 3.9 8.3
2019-Aug-15 18:00N 73°12' E 019°24'1212.0 280 / 141005.0 7.2 4.6 8.9
2019-Aug-15 17:00N 73°00' E 019°24'6 6.0 270 / 171005.2 7.6 1.3 8.8
2019-Aug-15 16:00N 72°54' E 019°24'6 6.0 270 / 191005.1 7.9 3.5 8.6
2019-Aug-15 15:00N 72°48' E 019°24'6 6.3 260 / 211005.1 7.4 4.9 8.7
2019-Aug-15 14:00N 72°42' E 019°30'6 6.0 260 / 171005.5 7.5 3.8 8.8
2019-Aug-15 13:00N 72°36' E 019°30'1212.0 270 / 191005.5 7.0 3.4 9.0
2019-Aug-15 12:00N 72°24' E 019°30'0 0.0 270 / 161005.7 7.3 2.8 9.2
2019-Aug-15 11:00N 72°24' E 019°30'6 6.3 270 / 161005.7 7.2 2.2 9.2
2019-Aug-15 10:00N 72°18' E 019°36'1212.0 280 / 141006.1 7.4 1.7 9.2
2019-Aug-15 09:00N 72°06' E 019°36'6 5.5 300 / 81006.5 7.2 0.7 8.9
2019-Aug-15 07:52N 72°00' E 019°41'0 0.0
2019-Aug-15 07:30N 72°00' E 019°41'612.3
2019-Aug-15 07:00N 71°54' E 019°36'6 6.3 020 / 81007.6 6.9 1.1 9.1
2019-Aug-15 06:00N 71°48' E 019°42'3 7.7 040 / 81007.5 7.0 1.9 9.2
2019-Aug-15 05:35N 71°45' E 019°44'0 0.0
2019-Aug-15 05:29N 71°45' E 019°44'918.2
2019-Aug-15 05:00N 71°36' E 019°42'1 2.5 040 / 121007.3 6.2 1.4 9.0
2019-Aug-15 04:25N 71°36' E 019°47'614.7
2019-Aug-15 04:00N 71°30' E 019°42'235.8 050 / 141007.2 6.2 2.1 9.0
2019-Aug-15 03:56N 71°31' E 019°48'1 2.3
2019-Aug-15 03:28N 71°30' E 019°48'613.3
2019-Aug-15 03:00N 71°24' E 019°42'6455.6 050 / 141007.2 6.0 2.5 8.9
2019-Aug-15 02:59N 71°30' E 019°48'5 9.8
2019-Aug-15 02:27N 71°24' E 019°49'4 9.8
2019-Aug-15 02:00N 71°20' E 019°50'2374.1
2019-Aug-15 02:00N 71°18' E 019°48'1 2.1 050 / 171007.1 6.5 2.9 9.1
2019-Aug-15 01:31N 71°19' E 019°51'510.1
2019-Aug-15 01:00N 71°13' E 019°52'2317.1
2019-Aug-15 01:00N 71°12' E 019°48'2 4.7 050 / 171006.7 6.7 3.7 9.5
2019-Aug-15 00:30N 71°10' E 019°52'4 8.5
2019-Aug-15 00:00N 71°06' E 019°48'2348.9 050 / 211006.6 7.0 4.2 9.4
2019-Aug-14 23:59N 71°07' E 019°53'510.0
2019-Aug-14 23:30N 71°02' E 019°54'2 3.4
2019-Aug-14 23:00N 71°00' E 019°54'2314.1
2019-Aug-14 23:00N 71°00' E 019°48'2 4.8 050 / 211006.6 7.5 4.4 9.4
2019-Aug-14 22:29N 70°59' E 019°54'510.4
2019-Aug-14 22:00N 70°54' E 019°55'6973.5
2019-Aug-14 22:00N 70°48' E 019°54'2 4.3 050 / 231006.1 7.9 4.8 9.3
2019-Aug-14 21:30N 70°50' E 019°56'4 8.0
2019-Aug-14 21:00N 70°46' E 019°57'4690.3
2019-Aug-14 21:00N 70°42' E 019°54'2 3.0 050 / 251005.7 8.0 5.3 8.9
2019-Aug-14 20:30N 70°41' E 019°58'3 5.6
2019-Aug-14 20:00N 70°38' E 019°58'3445.4
2019-Aug-14 20:00N 70°36' E 019°54'3 6.4 050 / 251005.7 8.3 5.9 8.9
2019-Aug-14 19:30N 70°33' E 019°59'3 6.5
2019-Aug-14 19:00N 70°30' E 019°60'2624.1
2019-Aug-14 19:00N 70°30' E 019°54'2 4.1 050 / 271005.7 8.0 5.8 8.4
2019-Aug-14 18:30N 70°30' E 020°00'5 9.7
2019-Aug-14 18:00N 70°25' E 020°02'1625.6
2019-Aug-14 18:00N 70°24' E 020°00'4 8.4 050 / 251005.7 8.0 6.2 8.9
2019-Aug-14 17:29N 70°20' E 020°04'510.4
2019-Aug-14 17:00N 70°15' E 020°07'3267.6
2019-Aug-14 17:00N 70°12' E 020°06'2 4.9 020 / 121004.9 9.6 7.0 9.2
2019-Aug-14 16:30N 70°10' E 020°08'5 9.8
2019-Aug-14 16:00N 70°05' E 020°09'5539.7
2019-Aug-14 16:00N 70°00' E 020°06'1 2.7 350 / 271004.2 9.1 7.310.0
2019-Aug-14 15:29N 70°00' E 020°02'510.1
2019-Aug-14 15:00N 69°56' E 019°55'2249.8
2019-Aug-14 15:00N 69°54' E 019°54'3 6.5 040 / 211004.2 9.8 7.410.0
2019-Aug-14 14:30N 69°52' E 019°47'5 9.8
2019-Aug-14 14:00N 69°49' E 019°35'2583.1
2019-Aug-14 14:00N 69°48' E 019°30'3 6.3 060 / 171003.8 10.1 7.7 9.9
2019-Aug-14 13:30N 69°48' E 019°21'510.0
2019-Aug-14 13:00N 69°46' E 019°08'41207.6
2019-Aug-14 13:00N 69°42' E 019°06'1 2.9 050 / 211002.7 10.3 7.1 9.2
2019-Aug-14 12:30N 69°42' E 019°02'612.4
2019-Aug-14 12:00N 69°36' E 018°54'31608.5 050 / 141002.7 14.1 7.4 9.5
2019-Aug-14 11:59N 69°39' E 018°58'0 0.0
2019-Aug-14 11:29N 69°39' E 018°58'3 6.3
2019-Aug-14 11:00N 69°36' E 018°54'31251.1 050 / 101002.8 13.9 7.7 9.5
2019-Aug-14 10:59N 69°39' E 018°58'0 0.0
2019-Aug-14 10:29N 69°39' E 018°58'3 6.3
2019-Aug-14 10:00N 69°36' E 018°54'31126.0 200 / 81003.0 12.5 8.0 9.4
2019-Aug-14 09:59N 69°39' E 018°58'0 0.0
2019-Aug-14 09:29N 69°39' E 018°58'3 6.3
2019-Aug-14 09:00N 69°36' E 018°54'3938.3 200 / 81002.8 12.6 8.3 9.5
2019-Aug-14 08:59N 69°39' E 018°58'0 0.0
2019-Aug-14 08:29N 69°39' E 018°58'3 6.3
2019-Aug-14 08:00N 69°36' E 018°54'3866.1 210 / 101003.0 12.0 8.3 9.5
2019-Aug-14 07:59N 69°39' E 018°58'0 0.0
2019-Aug-14 07:29N 69°39' E 018°58'3 6.3
2019-Aug-14 07:00N 69°36' E 018°54'3750.6 210 / 81003.2 11.6 7.9 9.6
2019-Aug-14 06:59N 69°39' E 018°58'0 0.0
2019-Aug-14 06:29N 69°39' E 018°58'3 6.3
2019-Aug-14 06:00N 69°36' E 018°54'3703.7 200 / 21003.2 11.9 8.6 9.5
2019-Aug-14 05:59N 69°39' E 018°58'0 0.0
2019-Aug-14 05:29N 69°39' E 018°58'3 6.3
2019-Aug-14 05:00N 69°36' E 018°54'3625.5 200 / 41003.1 11.0 8.4 9.4
2019-Aug-14 04:59N 69°39' E 018°58'0 0.0
2019-Aug-14 04:29N 69°39' E 018°58'3 6.3
2019-Aug-14 04:00N 69°36' E 018°54'3563.0 180 / 41003.0 10.5 8.2 9.4
2019-Aug-14 03:59N 69°39' E 018°58'0 0.0
2019-Aug-14 03:29N 69°39' E 018°58'3 6.3
2019-Aug-14 03:00N 69°36' E 018°54'3511.8 100 1003.0 10.8 7.8 9.5
2019-Aug-14 02:59N 69°39' E 018°58'0 0.0
2019-Aug-14 02:29N 69°39' E 018°58'3 6.3
2019-Aug-14 02:00N 69°36' E 018°54'3489.5 060 1003.0 11.0 7.6 9.6
2019-Aug-14 01:59N 69°39' E 018°58'0 0.0
2019-Aug-14 01:29N 69°39' E 018°58'3 6.3
2019-Aug-14 01:00N 69°36' E 018°54'3469.1 050 / 21003.0 11.0 7.6 9.6
2019-Aug-14 00:59N 69°39' E 018°58'0 0.0
2019-Aug-14 00:29N 69°39' E 018°58'3 6.3
2019-Aug-14 00:00N 69°36' E 018°54'3417.0 130 / 41003.1 11.0 7.5 9.6
2019-Aug-13 23:59N 69°39' E 018°58'0 0.0
2019-Aug-13 23:29N 69°39' E 018°58'3 6.4
2019-Aug-13 23:00N 69°36' E 018°54'3401.4 050 / 41003.1 11.5 7.5 9.6
2019-Aug-13 22:59N 69°39' E 018°58'0 0.0
2019-Aug-13 22:29N 69°39' E 018°58'3 6.4
2019-Aug-13 22:00N 69°36' E 018°54'3388.3 050 / 21003.2 11.3 7.2 9.6
2019-Aug-13 21:59N 69°39' E 018°58'0 0.0
2019-Aug-13 21:29N 69°39' E 018°58'3 6.4
2019-Aug-13 21:00N 69°36' E 018°54'3363.2 200 / 41003.5 11.8 7.3 9.6
2019-Aug-13 20:59N 69°39' E 018°58'0 0.0
2019-Aug-13 20:29N 69°39' E 018°58'3 6.4
2019-Aug-13 20:00N 69°36' E 018°54'3341.2 200 / 41003.5 12.6 7.910.0
2019-Aug-13 19:59N 69°39' E 018°58'0 0.0
2019-Aug-13 19:29N 69°39' E 018°58'3 6.4
2019-Aug-13 19:00N 69°36' E 018°54'3321.7 190 / 61003.3 12.9 7.6 9.5
2019-Aug-13 18:59N 69°39' E 018°58'0 0.0
2019-Aug-13 18:29N 69°39' E 018°58'3 6.4
2019-Aug-13 18:00N 69°36' E 018°54'3312.8 140 / 61003.5 14.6 7.5 9.6
2019-Aug-13 17:59N 69°39' E 018°58'0 0.0
2019-Aug-13 17:29N 69°39' E 018°58'3 6.4
2019-Aug-13 17:00N 69°36' E 018°54'3296.3 170 / 61003.3 16.1 7.6 9.4
2019-Aug-13 16:59N 69°39' E 018°58'0 0.0
2019-Aug-13 16:29N 69°39' E 018°58'3 6.4
2019-Aug-13 16:00N 69°36' E 018°54'3281.5 110 / 101003.2 16.1 7.5 9.3
2019-Aug-13 15:59N 69°39' E 018°58'0 0.0
2019-Aug-13 15:29N 69°39' E 018°58'3 6.4
2019-Aug-13 15:00N 69°36' E 018°54'3274.6 110 / 141003.3 16.3 7.8 9.4
2019-Aug-13 14:59N 69°39' E 018°58'0 0.0
2019-Aug-13 14:29N 69°39' E 018°58'3 6.4
2019-Aug-13 14:00N 69°36' E 018°54'3268.1 080 / 121003.7 16.3 8.1 9.4
2019-Aug-13 13:59N 69°39' E 018°58'0 0.0
2019-Aug-13 13:29N 69°39' E 018°58'3 6.4
2019-Aug-13 13:00N 69°36' E 018°54'3250.2 040 / 141003.7 16.2 7.9 9.6
2019-Aug-13 12:59N 69°39' E 018°58'0 0.0
2019-Aug-13 12:29N 69°39' E 018°58'3 6.4
2019-Aug-13 12:00N 69°36' E 018°54'3244.8 020 / 121004.2 16.3 8.1 9.6
2019-Aug-13 11:59N 69°39' E 018°58'0 0.0
2019-Aug-13 11:29N 69°39' E 018°58'3 6.4
2019-Aug-13 11:00N 69°36' E 018°54'3234.6 030 / 101004.3 15.9 8.1 9.6
2019-Aug-13 10:59N 69°39' E 018°58'0 0.0
2019-Aug-13 10:29N 69°39' E 018°58'3 6.4
2019-Aug-13 10:00N 69°36' E 018°54'3229.8 200 / 61004.7 14.6 8.110.0
2019-Aug-13 09:59N 69°39' E 018°58'0 0.0
2019-Aug-13 09:29N 69°39' E 018°58'0 0.0
2019-Aug-13 09:00N 69°39' E 018°58'0 0.9
2019-Aug-13 08:30N 69°38' E 018°58'4 8.8
2019-Aug-13 08:00N 69°35' E 018°50'5473.6
2019-Aug-13 08:00N 69°30' E 018°48'510.2 070 / 21005.7 11.0 8.4 8.1
2019-Aug-13 07:30N 69°32' E 018°35'510.0
2019-Aug-13 07:00N 69°31' E 018°21'2462.6
2019-Aug-13 07:00N 69°30' E 018°18'4 7.8 080 / 191004.7 11.1 8.6 8.8
2019-Aug-13 06:30N 69°31' E 018°07'5 9.8
2019-Aug-13 06:00N 69°34' E 017°56'41121.9
2019-Aug-13 06:00N 69°30' E 017°54'815.8 090 / 81004.7 12.0 9.010.7
2019-Aug-13 05:30N 69°37' E 017°47'5 9.0
2019-Aug-13 05:00N 69°38' E 017°35'3447.2
2019-Aug-13 05:00N 69°36' E 017°30'3 6.4 030 / 191004.1 10.7 8.8 9.6
2019-Aug-13 04:30N 69°37' E 017°22'4 8.9
2019-Aug-13 04:00N 69°36' E 017°10'6628.1
2019-Aug-13 04:00N 69°30' E 017°06'4 9.0 030 / 251003.8 10.3 8.210.0
2019-Aug-13 03:30N 69°34' E 016°59'4 8.8
2019-Aug-13 03:00N 69°32' E 016°48'3191.5
2019-Aug-13 03:00N 69°30' E 016°42'6 5.7 030 / 271003.6 10.4 8.311.4
2019-Aug-13 02:00N 69°28' E 016°27'4295.4
2019-Aug-13 02:00N 69°24' E 016°24'4 7.6 030 / 291003.5 10.3 8.210.5
2019-Aug-13 01:30N 69°27' E 016°16'4 7.9
2019-Aug-13 01:00N 69°25' E 016°06'2157.5
2019-Aug-13 01:00N 69°24' E 016°00'2 3.5 040 / 251003.5 10.0 8.1 9.5
2019-Aug-13 00:30N 69°23' E 015°57'4 7.8
2019-Aug-13 00:00N 69°20' E 015°49'2213.3
2019-Aug-13 00:00N 69°18' E 015°48'3 5.2 040 / 191003.7 10.0 8.3 9.8
2019-Aug-12 23:30N 69°17' E 015°41'4 7.8
2019-Aug-12 23:00N 69°15' E 015°33'3247.1
2019-Aug-12 23:00N 69°12' E 015°30'2 4.1 030 / 211003.6 10.1 8.510.6
2019-Aug-12 22:30N 69°12' E 015°24'4 7.9
2019-Aug-12 22:00N 69°10' E 015°16'4619.7
2019-Aug-12 22:00N 69°06' E 015°12'2 3.9 030 / 211003.2 9.9 8.510.2
2019-Aug-12 21:30N 69°07' E 015°07'4 8.2
2019-Aug-12 21:00N 69°04' E 014°60'41236.6
2019-Aug-12 21:00N 69°00' E 014°54'1 2.4 030 / 231003.1 10.0 8.611.6
2019-Aug-12 20:30N 69°01' E 014°53'4 7.9
2019-Aug-12 20:00N 68°58' E 014°46'4289.8
2019-Aug-12 20:00N 68°54' E 014°42'2 3.5 030 / 231002.6 10.1 8.910.8
2019-Aug-12 19:30N 68°55' E 014°38'5 9.1
2019-Aug-12 19:00N 68°52' E 014°30'4285.5
2019-Aug-12 19:00N 68°48' E 014°24'1 1.9 020 / 251001.7 10.5 9.011.6
2019-Aug-12 18:30N 68°48' E 014°21'4 8.8
2019-Aug-12 18:00N 68°45' E 014°13'3232.6
2019-Aug-12 18:00N 68°42' E 014°12'2 3.8 020 / 231001.1 11.6 9.711.6
2019-Aug-12 17:30N 68°41' E 014°08'5 9.5
2019-Aug-12 17:00N 68°36' E 014°07'055.3
2019-Aug-12 17:00N 68°36' E 014°06'5 9.6 1001.1 12.510.012.2
2019-Aug-12 16:30N 68°31' E 014°06'5 9.5
2019-Aug-12 16:00N 68°27' E 014°05'3324.7
2019-Aug-12 16:00N 68°24' E 014°00'2 3.7 020 / 141001.1 13.510.512.3
2019-Aug-12 15:30N 68°24' E 014°05'2 3.9
2019-Aug-12 15:00N 68°26' E 014°01'2146.9
2019-Aug-12 15:00N 68°24' E 014°00'4 7.3 020 / 121001.3 13.710.312.8
2019-Aug-12 14:30N 68°27' E 013°57'2 3.6
2019-Aug-12 14:00N 68°29' E 013°53'5784.2
2019-Aug-12 14:00N 68°24' E 013°48'713.5 030 / 141001.5 13.710.712.0
2019-Aug-12 13:30N 68°31' E 013°48'0 0.4
2019-Aug-12 13:00N 68°31' E 013°47'21043.6
2019-Aug-12 13:00N 68°30' E 013°42'3 5.6 030 / 121001.6 13.710.912.7
2019-Aug-12 12:30N 68°33' E 013°41'2 3.1
2019-Aug-12 12:00N 68°34' E 013°38'4309.9
2019-Aug-12 12:00N 68°30' E 013°36'510.0 040 / 161001.7 13.310.612.0
2019-Aug-12 11:30N 68°35' E 013°35'3 6.1
2019-Aug-12 11:00N 68°37' E 013°29'2178.1
2019-Aug-12 11:00N 68°36' E 013°24'2 4.0 040 / 141001.8 13.310.611.9
2019-Aug-12 10:30N 68°37' E 013°29'5 9.5
2019-Aug-12 10:00N 68°40' E 013°20'4361.9
2019-Aug-12 10:00N 68°36' E 013°18'817.3 040 / 161002.1 12.910.412.6
2019-Aug-12 09:30N 68°44' E 013°11'0 0.6
2019-Aug-12 09:00N 68°44' E 013°10'2207.4
2019-Aug-12 09:00N 68°42' E 013°06'511.2 040 / 161002.1 12.1 9.812.3
2019-Aug-12 08:30N 68°47' E 012°59'0 0.8
2019-Aug-12 08:00N 68°47' E 012°58'53146.9
2019-Aug-12 08:00N 68°42' E 012°54'817.3 050 / 171002.4 12.510.211.9
2019-Aug-12 07:30N 68°50' E 012°50'1 1.6
2019-Aug-12 07:00N 68°51' E 012°49'3320.1
2019-Aug-12 07:00N 68°48' E 012°48'4 7.5 050 / 161002.3 12.410.311.8
2019-Aug-12 06:30N 68°52' E 012°46'4 7.3
2019-Aug-12 06:00N 68°54' E 012°38'61549.6
2019-Aug-12 06:00N 68°48' E 012°36'612.4 050 / 161002.1 12.110.112.0
2019-Aug-12 05:30N 68°54' E 012°38'0 0.2
2019-Aug-12 05:00N 68°54' E 012°38'151.4
2019-Aug-12 05:00N 68°54' E 012°36'4 8.4 050 / 161002.2 12.310.312.0
2019-Aug-12 04:30N 68°57' E 012°30'510.6
2019-Aug-12 04:00N 69°01' E 012°20'197.8
2019-Aug-12 04:00N 69°00' E 012°18'2 4.3 050 / 161002.5 11.8 9.811.4
2019-Aug-12 03:30N 69°02' E 012°16'0 0.3
2019-Aug-12 03:00N 69°02' E 012°17'3720.0
2019-Aug-12 03:00N 69°00' E 012°12'3 5.4 040 / 141002.7 11.8 9.911.5
2019-Aug-12 02:30N 69°02' E 012°17'0 0.0
2019-Aug-12 02:00N 69°02' E 012°17'3176.5
2019-Aug-12 02:00N 69°00' E 012°12'3 5.3 050 / 121002.7 12.1 9.911.4
2019-Aug-12 01:29N 69°02' E 012°17'3 5.3
2019-Aug-12 01:00N 69°00' E 012°12'3141.2 060 / 141003.1 12.510.011.3
2019-Aug-12 00:58N 69°02' E 012°16'510.3
2019-Aug-12 00:30N 69°05' E 012°06'4 8.2
2019-Aug-12 00:00N 69°08' E 011°57'2247.1
2019-Aug-12 00:00N 69°06' E 011°54'2 4.6 060 / 81003.1 11.8 9.710.9
2019-Aug-11 23:30N 69°08' E 011°57'0 0.1
2019-Aug-11 23:00N 69°08' E 011°57'2630.6
2019-Aug-11 23:00N 69°06' E 011°54'611.8 070 / 141003.1 12.0 9.710.6
2019-Aug-11 22:30N 69°11' E 011°47'5 9.3
2019-Aug-11 22:00N 69°14' E 011°37'3204.8
2019-Aug-11 22:00N 69°12' E 011°36'2 4.6 060 / 101003.2 11.8 9.711.2
2019-Aug-11 21:30N 69°14' E 011°37'2 4.6
2019-Aug-11 21:00N 69°12' E 011°36'2432.5 060 / 141003.2 11.9 9.811.2
2019-Aug-11 20:59N 69°14' E 011°37'8 9.2
2019-Aug-11 20:09N 69°20' E 011°22'214.6
2019-Aug-11 20:00N 69°18' E 011°18'1010.4 060 / 141003.2 11.4 9.610.6
2019-Aug-11 19:00N 69°24' E 010°54'5 6.4 060 / 141003.2 11.5 9.710.8
2019-Aug-11 18:11N 69°29' E 010°57'527.4
2019-Aug-11 18:00N 69°24' E 010°54'510.1 060 / 121003.3 11.4 9.610.7
2019-Aug-11 17:30N 69°29' E 010°57'510.4
2019-Aug-11 17:00N 69°30' E 010°42'9 8.7 070 / 161003.2 11.5 9.511.0
2019-Aug-11 16:00N 69°36' E 010°24'4 4.2 060 / 171003.2 11.0 9.310.9
2019-Aug-11 15:00N 69°36' E 010°12'0 0.0 070 / 161003.6 11.0 9.110.4
2019-Aug-11 14:00N 69°36' E 010°12'0 0.0 070 / 171003.5 11.0 9.010.3
2019-Aug-11 13:00N 69°36' E 010°12'0 0.0 070 / 171003.5 10.9 9.010.3
2019-Aug-11 12:00N 69°36' E 010°12'6 6.4 070 / 191004.3 10.9 8.910.3
2019-Aug-11 11:00N 69°42' E 010°06'1010.2 070 / 231004.0 10.5 8.510.0
2019-Aug-11 10:00N 69°48' E 009°42'7 7.3 070 / 291003.7 10.5 8.510.4
2019-Aug-11 09:00N 69°54' E 009°30'0 0.0 070 / 291004.7 10.5 8.210.6
2019-Aug-11 08:00N 69°54' E 009°30'9 8.6 060 / 311004.6 10.4 8.110.6
2019-Aug-11 07:00N 70°00' E 009°12'1010.2 060 / 351004.7 10.0 7.810.9
2019-Aug-11 06:00N 70°06' E 008°48'7 7.3 060 / 371005.0 9.7 7.510.5
2019-Aug-11 05:00N 70°12' E 008°36'7 7.2 060 / 371005.8 9.5 6.5 9.8
2019-Aug-11 04:00N 70°18' E 008°24'6 6.1 060 / 351005.8 9.3 6.010.0
2019-Aug-11 03:00N 70°18' E 008°06'6 6.3 060 / 351007.3 9.0 5.4 9.9
2019-Aug-11 02:00N 70°12' E 008°00'7 7.3 060 / 351007.6 8.9 5.1 9.8
2019-Aug-11 01:00N 70°06' E 007°48'6 6.3 060 / 351007.7 8.9 4.7 9.6
2019-Aug-11 00:00N 70°00' E 007°42'7 7.3 060 / 311008.4 9.1 5.0 9.8
2019-Aug-10 23:00N 69°54' E 007°30'6 6.3 060 / 331008.2 9.3 5.1 9.7
2019-Aug-10 22:00N 69°48' E 007°24'7 7.3 060 / 331008.3 9.5 5.110.2
2019-Aug-10 21:00N 69°42' E 007°12'6 6.4 060 / 331008.6 9.3 4.910.3
2019-Aug-10 20:00N 69°36' E 007°06'7 7.3 060 / 351008.2 9.3 4.910.2
2019-Aug-10 19:00N 69°30' E 006°54'7 7.3 060 / 351008.2 9.3 4.810.5
2019-Aug-10 18:00N 69°24' E 006°42'6 6.4 060 / 331008.4 9.3 5.010.3
2019-Aug-10 17:00N 69°18' E 006°36'7 7.4 060 / 331008.6 9.5 5.111.0
2019-Aug-10 16:00N 69°12' E 006°24'6 6.4 060 / 351007.9 9.8 5.311.1
2019-Aug-10 15:00N 69°06' E 006°18'7 7.4 070 / 331008.2 10.0 5.711.4
2019-Aug-10 14:00N 69°00' E 006°06'6 6.4 070 / 311008.5 10.4 6.211.0
2019-Aug-10 13:00N 68°54' E 006°00'7 7.4 070 / 311008.6 10.3 5.811.0
2019-Aug-10 12:00N 68°48' E 005°48'7 7.4 070 / 311008.6 10.3 5.811.1
2019-Aug-10 11:00N 68°42' E 005°36'   070 / 311008.5 10.3 5.611.4
Track history (hours):
 
Tides and Currents Weather Stations Pressure Air Temp Water Temp Dewpoint Dewpoint Depression Visibility Wind Speed Wind Dir Waves Ship Positions

Oceanographic research ship Johan Hjort (Norway)

Detailed information on ship capabilities available from University of Delaware's Ocean Information Center and ARCUS's ALIAS (Arctic Logistics Information and Support) project.

Last reported at 2019-Aug-20 10:27 UTC. Time now 2019-Aug-20 10:43 UTC.
Position N 69°39' E 018°58'.

MMSI: 257139000.

Date/timePositionNaut miles runAvg speedWind from/ knotsBaromVisibWave heightAir tempDewpointWater temp
2019-Aug-20 10:27N 69°39' E 018°58'0 0.0
2019-Aug-20 10:00N 69°39' E 018°58'31171.3
2019-Aug-20 10:00N 69°36' E 018°54'3 6.5 190 / 81005.0 13.0 7.1 8.8
2019-Aug-20 09:30N 69°39' E 018°58'0 0.0
2019-Aug-20 09:00N 69°39' E 018°58'31464.1
2019-Aug-20 09:00N 69°36' E 018°54'3 6.5 180 / 101004.6 13.3 7.3 8.8
2019-Aug-20 08:30N 69°39' E 018°58'0 0.0
2019-Aug-20 08:00N 69°39' E 018°58'31464.1
2019-Aug-20 08:00N 69°36' E 018°54'3 6.5 190 / 101004.1 12.1 7.0 8.8
2019-Aug-20 07:30N 69°39' E 018°58'0 0.0
2019-Aug-20 07:00N 69°39' E 018°58'31673.3
2019-Aug-20 07:00N 69°36' E 018°54'3 6.5 200 / 101003.3 12.0 7.3 9.3
2019-Aug-20 06:30N 69°39' E 018°58'0 0.0
2019-Aug-20 06:00N 69°39' E 018°58'31952.2
2019-Aug-20 06:00N 69°36' E 018°54'3 6.5 240 / 41002.8 11.8 8.2 9.0
2019-Aug-20 05:30N 69°39' E 018°58'0 0.0
2019-Aug-20 05:00N 69°39' E 018°58'31673.3
2019-Aug-20 05:00N 69°36' E 018°54'3 6.5 210 / 41002.3 11.0 8.0 8.9
2019-Aug-20 04:30N 69°39' E 018°58'0 0.0
2019-Aug-20 04:00N 69°39' E 018°58'0 0.0
2019-Aug-20 03:29N 69°39' E 018°58'3 6.5
2019-Aug-20 03:00N 69°36' E 018°54'35856.5 270 / 41001.1 10.6 8.2 9.1
2019-Aug-20 02:59N 69°39' E 018°58'0 0.0
2019-Aug-20 02:29N 69°39' E 018°58'3 6.5
2019-Aug-20 02:00N 69°36' E 018°54'33904.4 260 / 61000.5 11.0 8.7 9.5
2019-Aug-20 01:59N 69°39' E 018°58'0 0.0
2019-Aug-20 01:29N 69°39' E 018°58'3 6.5
2019-Aug-20 01:00N 69°36' E 018°54'32342.6 290 / 2999.6 11.0 9.0 8.9
2019-Aug-20 00:59N 69°39' E 018°58'0 0.0
2019-Aug-20 00:29N 69°39' E 018°58'3 6.5
2019-Aug-20 00:00N 69°36' E 018°54'31952.2 300 / 4998.5 11.5 9.4 9.3
2019-Aug-19 23:59N 69°39' E 018°58'0 0.0
2019-Aug-19 23:29N 69°39' E 018°58'3 6.5
2019-Aug-19 23:00N 69°36' E 018°54'31301.5 200 / 4997.5 11.6 9.6 9.3
2019-Aug-19 22:59N 69°39' E 018°58'0 0.0
2019-Aug-19 22:29N 69°39' E 018°58'3 6.5
2019-Aug-19 22:00N 69°36' E 018°54'31171.3 280 / 6996.6 11.5 9.6 8.9
2019-Aug-19 21:59N 69°39' E 018°58'0 0.0
2019-Aug-19 21:29N 69°39' E 018°58'0 0.0
2019-Aug-19 20:59N 69°39' E 018°58'0 0.0
2019-Aug-19 20:29N 69°39' E 018°58'3 6.6
2019-Aug-19 20:00N 69°36' E 018°54'3901.0 280 / 2995.5 12.510.7 9.1
2019-Aug-19 19:59N 69°39' E 018°58'0 0.0
2019-Aug-19 19:29N 69°39' E 018°58'3 6.6
2019-Aug-19 19:00N 69°36' E 018°54'3836.6 060 995.2 12.510.7 9.1
2019-Aug-19 18:59N 69°39' E 018°58'0 0.0
2019-Aug-19 18:29N 69°39' E 018°58'3 6.6
2019-Aug-19 18:00N 69°36' E 018°54'3689.0 030 / 2995.3 12.410.5 9.3
2019-Aug-19 17:59N 69°39' E 018°58'0 0.0
2019-Aug-19 17:29N 69°39' E 018°58'3 6.6
2019-Aug-19 17:00N 69°36' E 018°54'3650.7 060 / 2995.7 13.010.8 9.3
2019-Aug-19 16:59N 69°39' E 018°58'0 0.0
2019-Aug-19 16:29N 69°39' E 018°58'0 0.0
2019-Aug-19 15:59N 69°39' E 018°58'0 0.0
2019-Aug-19 15:29N 69°39' E 018°58'3 6.6
2019-Aug-19 15:00N 69°36' E 018°54'3532.4 050 996.6 13.010.5 9.2
2019-Aug-19 14:59N 69°39' E 018°58'0 0.0
2019-Aug-19 14:29N 69°39' E 018°58'3 6.6
2019-Aug-19 14:00N 69°36' E 018°54'3509.3 100 / 2997.0 13.311.0 9.4
2019-Aug-19 13:59N 69°39' E 018°58'0 0.0
2019-Aug-19 13:29N 69°39' E 018°58'3 6.6
2019-Aug-19 13:00N 69°36' E 018°54'3509.3 060 / 2997.5 13.010.7 9.1
2019-Aug-19 12:59N 69°39' E 018°58'0 0.0
2019-Aug-19 12:29N 69°39' E 018°58'3 6.6
2019-Aug-19 12:00N 69°36' E 018°54'3450.5 200 998.2 13.210.9 9.0
2019-Aug-19 11:59N 69°39' E 018°58'0 0.0
2019-Aug-19 11:29N 69°39' E 018°58'3 6.6
2019-Aug-19 11:00N 69°36' E 018°54'3433.8 020 998.6 12.510.2 8.9
2019-Aug-19 10:59N 69°39' E 018°58'0 0.0
2019-Aug-19 10:29N 69°39' E 018°58'3 6.6
2019-Aug-19 10:00N 69°36' E 018°54'3390.4 040 / 6999.0 11.4 9.3 8.8
2019-Aug-19 09:59N 69°39' E 018°58'0 0.0
2019-Aug-19 09:30N 69°39' E 018°58'1 1.1
2019-Aug-19 09:00N 69°39' E 018°58'0 0.0
2019-Aug-19 08:28N 69°39' E 018°58'0 0.0
2019-Aug-19 07:58N 69°39' E 018°58'0 0.0
2019-Aug-19 07:28N 69°39' E 018°58'4 7.9
2019-Aug-19 07:00N 69°36' E 018°54'4176.9 050 / 41001.1 12.410.4 9.0
2019-Aug-19 06:58N 69°39' E 018°58'0 0.0
2019-Aug-19 06:28N 69°39' E 018°58'4 7.9
2019-Aug-19 06:00N 69°36' E 018°54'4171.8 030 / 41001.2 11.9 9.9 8.8
2019-Aug-19 05:58N 69°39' E 018°58'0 0.1
2019-Aug-19 05:28N 69°40' E 018°58'4 8.1
2019-Aug-19 05:00N 69°36' E 018°54'4158.7 040 / 61001.6 12.510.0 8.8
2019-Aug-19 04:58N 69°40' E 018°58'0 0.0
2019-Aug-19 04:28N 69°40' E 018°58'4 8.1
2019-Aug-19 04:00N 69°36' E 018°54'4155.1 040 / 41002.0 12.610.9 8.9
2019-Aug-19 03:58N 69°40' E 018°58'0 0.0
2019-Aug-19 03:28N 69°40' E 018°58'4 8.1
2019-Aug-19 03:00N 69°36' E 018°54'4151.7 030 1002.2 12.210.6 9.0
2019-Aug-19 02:58N 69°40' E 018°58'0 0.0
2019-Aug-19 02:28N 69°40' E 018°58'1 1.1
2019-Aug-19 02:00N 69°40' E 018°59'42596.7
2019-Aug-19 02:00N 69°36' E 018°54'918.5 020 / 81002.1 12.010.4 8.9
2019-Aug-19 01:30N 69°45' E 019°03'510.6
2019-Aug-19 01:00N 69°50' E 018°59'2217.2
2019-Aug-19 01:00N 69°48' E 018°54'611.7 180 / 21002.6 12.511.0 8.1
2019-Aug-19 00:30N 69°53' E 018°48'510.7
2019-Aug-19 00:00N 69°56' E 018°34'2645.5
2019-Aug-19 00:00N 69°54' E 018°30'5 9.7 200 / 101002.5 11.410.0 9.2
2019-Aug-18 23:30N 69°57' E 018°18'510.4
2019-Aug-18 23:00N 70°01' E 018°12'1829.1
2019-Aug-18 23:00N 70°00' E 018°12'713.4 210 / 141001.7 11.610.110.0
2019-Aug-18 22:30N 70°06' E 018°04'510.8
2019-Aug-18 22:00N 70°11' E 017°56'5386.7
2019-Aug-18 22:00N 70°06' E 017°54'918.8 170 / 121001.2 11.5 9.9 9.3
2019-Aug-18 21:29N 70°15' E 017°47'510.0
2019-Aug-18 21:00N 70°19' E 017°40'2171.8
2019-Aug-18 21:00N 70°18' E 017°36'611.5 130 / 161000.7 13.0 9.4 9.0
2019-Aug-18 20:30N 70°24' E 017°33'5 9.8
2019-Aug-18 20:00N 70°28' E 017°25'44574.9
2019-Aug-18 20:00N 70°24' E 017°24'817.0 090 / 161000.5 12.0 9.010.1
2019-Aug-18 19:30N 70°32' E 017°17'5 9.9
2019-Aug-18 19:00N 70°36' E 017°09'167.4
2019-Aug-18 19:00N 70°36' E 017°06'9 9.1 090 / 141000.0 12.1 9.5 9.8
2019-Aug-18 18:00N 70°44' E 016°54'2351.9
2019-Aug-18 18:00N 70°42' E 016°54'8 8.4 090 / 101000.6 11.0 9.310.0
2019-Aug-18 17:00N 70°48' E 016°36'1313.4 090 / 141000.2 10.9 9.3 9.9
2019-Aug-18 16:00N 71°00' E 016°18'8 8.4 090 / 101000.3 10.9 9.610.0
2019-Aug-18 15:00N 71°06' E 016°00'1313.3 060 / 101000.1 9.8 8.6 9.9
2019-Aug-18 14:00N 71°18' E 015°42'8 8.3 060 / 141000.2 9.5 8.310.0
2019-Aug-18 13:00N 71°24' E 015°24'7 7.1 050 / 191000.5 9.0 7.4 9.6
2019-Aug-18 12:00N 71°30' E 015°12'1313.3 040 / 211000.6 8.8 7.2 9.5
2019-Aug-18 11:00N 71°42' E 014°54'8 8.2 040 / 231000.5 8.5 6.7 8.9
2019-Aug-18 10:00N 71°48' E 014°36'1313.2 040 / 251000.7 8.5 6.3 8.9
2019-Aug-18 09:00N 72°00' E 014°18'8 8.2 040 / 271001.1 8.6 5.9 9.9
2019-Aug-18 08:00N 72°06' E 014°00'8 8.2 040 / 291001.5 8.1 5.4 9.9
2019-Aug-18 07:00N 72°12' E 013°42'1312.5 050 / 271002.1 7.8 4.9 9.1
2019-Aug-18 06:00N 72°24' E 013°30'9 9.4 050 / 291002.8 7.7 3.8 9.2
2019-Aug-18 05:00N 72°30' E 013°06'8 8.1 050 / 291003.7 7.8 3.5 8.9
2019-Aug-18 04:00N 72°36' E 012°48'1313.1 050 / 291004.4 7.8-18.4 8.9
2019-Aug-18 03:00N 72°48' E 012°30'8 8.0 050 / 271005.3 7.6 3.3 8.9
2019-Aug-18 02:00N 72°54' E 012°12'9 9.2 060 / 251006.3 7.5 2.6 8.5
2019-Aug-18 01:00N 73°00' E 011°48'1313.1 050 / 211006.3 7.7 2.5 8.7
2019-Aug-18 00:00N 73°12' E 011°30'9 9.2 050 / 191007.7 7.2 2.3 8.8
2019-Aug-17 23:00N 73°18' E 011°06'1313.1 040 / 171008.2 6.9 1.6 8.7
2019-Aug-17 22:00N 73°30' E 010°48'9 9.1 040 / 161008.6 6.0 2.8 8.7
2019-Aug-17 21:00N 73°36' E 010°24'9 9.0 040 / 141008.7 6.7 0.8 8.8
2019-Aug-17 20:00N 73°42' E 010°00'1413.7 040 / 121008.7 6.7-0.1 8.9
2019-Aug-17 19:00N 73°54' E 009°36'9 8.9 030 / 101009.1 6.5-0.0 8.8
2019-Aug-17 18:00N 74°00' E 009°12'1413.7 030 / 101009.2 6.2 0.6 8.1
2019-Aug-17 17:00N 74°12' E 008°48'9 8.9 020 / 101009.1 5.9 1.4 8.3
2019-Aug-17 16:00N 74°18' E 008°24'1010.1 340 / 101008.8 6.9-0.1 8.2
2019-Aug-17 15:00N 74°24' E 007°54'0 0.0 340 / 81009.0 6.1 0.6 8.2
2019-Aug-17 14:00N 74°24' E 007°54'8 8.1 320 / 81009.0 6.0-0.1 8.2
2019-Aug-17 13:00N 74°24' E 008°24'1010.0 320 / 81009.0 5.9 0.4 8.1
2019-Aug-17 12:00N 74°30' E 008°54'0 0.0 320 / 121008.7 6.2 0.7 8.7
2019-Aug-17 11:00N 74°30' E 008°54'1111.4 320 / 121008.7 6.0-0.1 8.6
2019-Aug-17 10:00N 74°24' E 009°30'8 7.7 330 / 141008.2 5.8 1.3 8.4
2019-Aug-17 09:00N 74°30' E 009°48'8 7.7 320 / 121008.1 6.0 3.2 8.4
2019-Aug-17 08:00N 74°24' E 010°06'1010.0 260 / 101007.7 6.0 2.6 8.1
2019-Aug-17 07:00N 74°30' E 010°36'6 6.2 260 / 81007.6 5.4 3.3 7.9
2019-Aug-17 06:00N 74°24' E 010°42'0 0.0 270 / 121007.3 5.4 2.3 7.8
2019-Aug-17 05:00N 74°24' E 010°42'1010.0 260 / 101007.3 6.0 0.5 7.9
2019-Aug-17 04:00N 74°30' E 011°12'9 8.8 270 / 8 5.7 0.6 7.8
2019-Aug-17 03:00N 74°24' E 011°36'6 6.2 290 / 101006.7 5.7-0.3 7.9
2019-Aug-17 02:00N 74°30' E 011°42'1111.4 270 / 101007.2 5.7-0.3 8.1
2019-Aug-17 01:00N 74°24' E 012°18'2 1.6 290 / 121007.0 5.5 1.0 8.2
2019-Aug-17 00:00N 74°24' E 012°24'8 7.7 280 / 101006.7 5.2 1.0 8.3
2019-Aug-16 23:00N 74°30' E 012°42'1111.2 290 / 121006.7 5.7-0.4 7.8
2019-Aug-16 22:00N 74°30' E 013°24'0 0.0 290 / 121006.3 5.9-1.5 7.8
2019-Aug-16 21:00N 74°30' E 013°24'1010.0 300 / 141006.6 5.6-0.9 7.9
2019-Aug-16 20:00N 74°24' E 013°54'8 8.1 300 / 121006.1 5.8-0.0 7.9
2019-Aug-16 19:00N 74°24' E 014°24'6 6.0 310 / 141005.8 6.0-0.4 8.8
2019-Aug-16 18:00N 74°30' E 014°24'10 9.6 290 / 121005.6 5.9 0.2 8.7
2019-Aug-16 17:00N 74°30' E 015°00'7 6.8 290 / 121005.1 6.1-0.0 9.1
2019-Aug-16 16:00N 74°24' E 015°12'7 6.8 280 / 141004.9 6.2-0.2 9.0
2019-Aug-16 15:00N 74°30' E 015°24'2 1.6 280 / 141004.8 6.0-1.2 8.5
2019-Aug-16 14:00N 74°30' E 015°30'6 6.0 280 / 141004.6 5.8-2.1 8.3
2019-Aug-16 13:00N 74°24' E 015°30'9 8.8 280 / 161004.3 5.5-0.6 8.2
2019-Aug-16 12:00N 74°30' E 015°54'8 7.7 280 / 141004.2 5.5-1.4 6.8
2019-Aug-16 11:00N 74°24' E 016°12'5 4.8 280 / 161003.8 5.3 0.1 6.9
2019-Aug-16 10:00N 74°24' E 016°30'6771.9 280 / 141003.6 5.9 1.2 6.8
2019-Aug-16 09:59N 74°30' E 016°33'3 6.0
2019-Aug-16 09:26N 74°30' E 016°45'4 9.0
2019-Aug-16 09:00N 74°30' E 016°60'6419.8
2019-Aug-16 09:00N 74°24' E 016°54'714.1 270 / 121003.5 4.3 2.8 4.2
2019-Aug-16 08:30N 74°30' E 017°07'3 6.0
2019-Aug-16 08:00N 74°30' E 017°18'2129.5
2019-Aug-16 08:00N 74°30' E 017°12'5 9.8 220 / 101003.1 4.7 3.2 3.7
2019-Aug-16 07:30N 74°30' E 017°30'510.6
2019-Aug-16 07:00N 74°30' E 017°50'056.2
2019-Aug-16 07:00N 74°30' E 017°48'612.1 210 / 141003.1 4.7 2.7 3.3
2019-Aug-16 06:30N 74°30' E 018°10'510.4
2019-Aug-16 06:00N 74°30' E 018°30'1 2.3
2019-Aug-16 05:30N 74°29' E 018°33'4 8.3
2019-Aug-16 05:00N 74°25' E 018°41'2525.8
2019-Aug-16 05:00N 74°24' E 018°36'4 8.3 240 / 141003.7 5.0 2.8 3.5
2019-Aug-16 04:30N 74°22' E 018°49'4 9.1
2019-Aug-16 04:00N 74°18' E 018°59'1116.3
2019-Aug-16 04:00N 74°18' E 018°54'510.6 240 / 141003.7 4.9 2.4 3.5
2019-Aug-16 03:30N 74°15' E 019°10'2 4.6
2019-Aug-16 03:00N 74°13' E 019°12'2185.3
2019-Aug-16 03:00N 74°12' E 019°06'2 5.0 240 / 121003.8 5.1 3.0 3.1
2019-Aug-16 02:30N 74°10' E 019°11'4 8.7
2019-Aug-16 02:00N 74°06' E 019°12'61550.2
2019-Aug-16 02:00N 74°00' E 019°12'1 1.7 250 / 141004.2 5.0 2.1 3.9
2019-Aug-16 01:30N 74°01' E 019°13'713.3
2019-Aug-16 01:00N 73°54' E 019°12'62678.1 270 / 141004.3 5.7 2.2 4.5
2019-Aug-16 00:59N 73°60' E 019°13'1212.0
2019-Aug-16 00:00N 73°48' E 019°12'2 4.3 280 / 171004.2 6.5 1.7 7.1
2019-Aug-15 23:28N 73°50' E 019°16'817.2
2019-Aug-15 23:00N 73°42' E 019°12'6 6.2 290 / 161004.2 6.2 2.8 7.3
2019-Aug-15 22:00N 73°36' E 019°18'1212.0 270 / 161004.0 5.8 4.1 8.2
2019-Aug-15 21:00N 73°24' E 019°18'0 0.0 250 / 171004.2 7.4 3.8 8.5
2019-Aug-15 20:00N 73°24' E 019°18'6 6.0 260 / 141004.4 7.0 4.4 8.4
2019-Aug-15 19:00N 73°18' E 019°18'6 6.2 270 / 141004.6 7.2 3.9 8.3
2019-Aug-15 18:00N 73°12' E 019°24'1212.0 280 / 141005.0 7.2 4.6 8.9
2019-Aug-15 17:00N 73°00' E 019°24'6 6.0 270 / 171005.2 7.6 1.3 8.8
2019-Aug-15 16:00N 72°54' E 019°24'6 6.0 270 / 191005.1 7.9 3.5 8.6
2019-Aug-15 15:00N 72°48' E 019°24'6 6.3 260 / 211005.1 7.4 4.9 8.7
2019-Aug-15 14:00N 72°42' E 019°30'6 6.0 260 / 171005.5 7.5 3.8 8.8
2019-Aug-15 13:00N 72°36' E 019°30'1212.0 270 / 191005.5 7.0 3.4 9.0
2019-Aug-15 12:00N 72°24' E 019°30'0 0.0 270 / 161005.7 7.3 2.8 9.2
2019-Aug-15 11:00N 72°24' E 019°30'6 6.3 270 / 161005.7 7.2 2.2 9.2
2019-Aug-15 10:00N 72°18' E 019°36'1212.0 280 / 141006.1 7.4 1.7 9.2
2019-Aug-15 09:00N 72°06' E 019°36'6 5.5 300 / 81006.5 7.2 0.7 8.9
2019-Aug-15 07:52N 72°00' E 019°41'0 0.0
2019-Aug-15 07:30N 72°00' E 019°41'612.3
2019-Aug-15 07:00N 71°54' E 019°36'6 6.3 020 / 81007.6 6.9 1.1 9.1
2019-Aug-15 06:00N 71°48' E 019°42'3 7.7 040 / 81007.5 7.0 1.9 9.2
2019-Aug-15 05:35N 71°45' E 019°44'0 0.0
2019-Aug-15 05:29N 71°45' E 019°44'918.2
2019-Aug-15 05:00N 71°36' E 019°42'1 2.5 040 / 121007.3 6.2 1.4 9.0
2019-Aug-15 04:25N 71°36' E 019°47'614.7
2019-Aug-15 04:00N 71°30' E 019°42'235.8 050 / 141007.2 6.2 2.1 9.0
2019-Aug-15 03:56N 71°31' E 019°48'1 2.3
2019-Aug-15 03:28N 71°30' E 019°48'613.3
2019-Aug-15 03:00N 71°24' E 019°42'6455.6 050 / 141007.2 6.0 2.5 8.9
2019-Aug-15 02:59N 71°30' E 019°48'5 9.8
2019-Aug-15 02:27N 71°24' E 019°49'4 9.8
2019-Aug-15 02:00N 71°20' E 019°50'2374.1
2019-Aug-15 02:00N 71°18' E 019°48'1 2.1 050 / 171007.1 6.5 2.9 9.1
2019-Aug-15 01:31N 71°19' E 019°51'510.1
2019-Aug-15 01:00N 71°13' E 019°52'2317.1
2019-Aug-15 01:00N 71°12' E 019°48'2 4.7 050 / 171006.7 6.7 3.7 9.5
2019-Aug-15 00:30N 71°10' E 019°52'4 8.5
2019-Aug-15 00:00N 71°06' E 019°48'2348.9 050 / 211006.6 7.0 4.2 9.4
2019-Aug-14 23:59N 71°07' E 019°53'510.0
2019-Aug-14 23:30N 71°02' E 019°54'2 3.4
2019-Aug-14 23:00N 71°00' E 019°54'2314.1
2019-Aug-14 23:00N 71°00' E 019°48'2 4.8 050 / 211006.6 7.5 4.4 9.4
2019-Aug-14 22:29N 70°59' E 019°54'510.4
2019-Aug-14 22:00N 70°54' E 019°55'6973.5
2019-Aug-14 22:00N 70°48' E 019°54'2 4.3 050 / 231006.1 7.9 4.8 9.3
2019-Aug-14 21:30N 70°50' E 019°56'4 8.0
2019-Aug-14 21:00N 70°46' E 019°57'4690.3
2019-Aug-14 21:00N 70°42' E 019°54'2 3.0 050 / 251005.7 8.0 5.3 8.9
2019-Aug-14 20:30N 70°41' E 019°58'3 5.6
2019-Aug-14 20:00N 70°38' E 019°58'3445.4
2019-Aug-14 20:00N 70°36' E 019°54'3 6.4 050 / 251005.7 8.3 5.9 8.9
2019-Aug-14 19:30N 70°33' E 019°59'3 6.5
2019-Aug-14 19:00N 70°30' E 019°60'2624.1
2019-Aug-14 19:00N 70°30' E 019°54'2 4.1 050 / 271005.7 8.0 5.8 8.4
2019-Aug-14 18:30N 70°30' E 020°00'5 9.7
2019-Aug-14 18:00N 70°25' E 020°02'1625.6
2019-Aug-14 18:00N 70°24' E 020°00'4 8.4 050 / 251005.7 8.0 6.2 8.9
2019-Aug-14 17:29N 70°20' E 020°04'510.4
2019-Aug-14 17:00N 70°15' E 020°07'3267.6
2019-Aug-14 17:00N 70°12' E 020°06'2 4.9 020 / 121004.9 9.6 7.0 9.2
2019-Aug-14 16:30N 70°10' E 020°08'5 9.8
2019-Aug-14 16:00N 70°05' E 020°09'5539.7
2019-Aug-14 16:00N 70°00' E 020°06'1 2.7 350 / 271004.2 9.1 7.310.0
2019-Aug-14 15:29N 70°00' E 020°02'510.1
2019-Aug-14 15:00N 69°56' E 019°55'2249.8
2019-Aug-14 15:00N 69°54' E 019°54'3 6.5 040 / 211004.2 9.8 7.410.0
2019-Aug-14 14:30N 69°52' E 019°47'5 9.8
2019-Aug-14 14:00N 69°49' E 019°35'2583.1
2019-Aug-14 14:00N 69°48' E 019°30'3 6.3 060 / 171003.8 10.1 7.7 9.9
2019-Aug-14 13:30N 69°48' E 019°21'510.0
2019-Aug-14 13:00N 69°46' E 019°08'41207.6
2019-Aug-14 13:00N 69°42' E 019°06'1 2.9 050 / 211002.7 10.3 7.1 9.2
2019-Aug-14 12:30N 69°42' E 019°02'612.4
2019-Aug-14 12:00N 69°36' E 018°54'31608.5 050 / 141002.7 14.1 7.4 9.5
2019-Aug-14 11:59N 69°39' E 018°58'0 0.0
2019-Aug-14 11:29N 69°39' E 018°58'3 6.3
2019-Aug-14 11:00N 69°36' E 018°54'31251.1 050 / 101002.8 13.9 7.7 9.5
2019-Aug-14 10:59N 69°39' E 018°58'0 0.0
2019-Aug-14 10:29N 69°39' E 018°58'3 6.3
2019-Aug-14 10:00N 69°36' E 018°54'31126.0 200 / 81003.0 12.5 8.0 9.4
2019-Aug-14 09:59N 69°39' E 018°58'0 0.0
2019-Aug-14 09:29N 69°39' E 018°58'3 6.3
2019-Aug-14 09:00N 69°36' E 018°54'3938.3 200 / 81002.8 12.6 8.3 9.5
2019-Aug-14 08:59N 69°39' E 018°58'0 0.0
2019-Aug-14 08:29N 69°39' E 018°58'3 6.3
2019-Aug-14 08:00N 69°36' E 018°54'3866.1 210 / 101003.0 12.0 8.3 9.5
2019-Aug-14 07:59N 69°39' E 018°58'0 0.0
2019-Aug-14 07:29N 69°39' E 018°58'3 6.3
2019-Aug-14 07:00N 69°36' E 018°54'3750.6 210 / 81003.2 11.6 7.9 9.6
2019-Aug-14 06:59N 69°39' E 018°58'0 0.0
2019-Aug-14 06:29N 69°39' E 018°58'3 6.3
2019-Aug-14 06:00N 69°36' E 018°54'3703.7 200 / 21003.2 11.9 8.6 9.5
2019-Aug-14 05:59N 69°39' E 018°58'0 0.0
2019-Aug-14 05:29N 69°39' E 018°58'3 6.3
2019-Aug-14 05:00N 69°36' E 018°54'3625.5 200 / 41003.1 11.0 8.4 9.4
2019-Aug-14 04:59N 69°39' E 018°58'0 0.0
2019-Aug-14 04:29N 69°39' E 018°58'3 6.3
2019-Aug-14 04:00N 69°36' E 018°54'3563.0 180 / 41003.0 10.5 8.2 9.4
2019-Aug-14 03:59N 69°39' E 018°58'0 0.0
2019-Aug-14 03:29N 69°39' E 018°58'3 6.3
2019-Aug-14 03:00N 69°36' E 018°54'3511.8 100 1003.0 10.8 7.8 9.5
2019-Aug-14 02:59N 69°39' E 018°58'0 0.0
2019-Aug-14 02:29N 69°39' E 018°58'3 6.3
2019-Aug-14 02:00N 69°36' E 018°54'3489.5 060 1003.0 11.0 7.6 9.6
2019-Aug-14 01:59N 69°39' E 018°58'0 0.0
2019-Aug-14 01:29N 69°39' E 018°58'3 6.3
2019-Aug-14 01:00N 69°36' E 018°54'3469.1 050 / 21003.0 11.0 7.6 9.6
2019-Aug-14 00:59N 69°39' E 018°58'0 0.0
2019-Aug-14 00:29N 69°39' E 018°58'3 6.3
2019-Aug-14 00:00N 69°36' E 018°54'3417.0 130 / 41003.1 11.0 7.5 9.6
2019-Aug-13 23:59N 69°39' E 018°58'0 0.0
2019-Aug-13 23:29N 69°39' E 018°58'3 6.4
2019-Aug-13 23:00N 69°36' E 018°54'3401.4 050 / 41003.1 11.5 7.5 9.6
2019-Aug-13 22:59N 69°39' E 018°58'0 0.0
2019-Aug-13 22:29N 69°39' E 018°58'3 6.4
2019-Aug-13 22:00N 69°36' E 018°54'3388.3 050 / 21003.2 11.3 7.2 9.6
2019-Aug-13 21:59N 69°39' E 018°58'0 0.0
2019-Aug-13 21:29N 69°39' E 018°58'3 6.4
2019-Aug-13 21:00N 69°36' E 018°54'3363.2 200 / 41003.5 11.8 7.3 9.6
2019-Aug-13 20:59N 69°39' E 018°58'0 0.0
2019-Aug-13 20:29N 69°39' E 018°58'3 6.4
2019-Aug-13 20:00N 69°36' E 018°54'3341.2 200 / 41003.5 12.6 7.910.0
2019-Aug-13 19:59N 69°39' E 018°58'0 0.0
2019-Aug-13 19:29N 69°39' E 018°58'3 6.4
2019-Aug-13 19:00N 69°36' E 018°54'3321.7 190 / 61003.3 12.9 7.6 9.5
2019-Aug-13 18:59N 69°39' E 018°58'0 0.0
2019-Aug-13 18:29N 69°39' E 018°58'3 6.4
2019-Aug-13 18:00N 69°36' E 018°54'3312.8 140 / 61003.5 14.6 7.5 9.6
2019-Aug-13 17:59N 69°39' E 018°58'0 0.0
2019-Aug-13 17:29N 69°39' E 018°58'3 6.4
2019-Aug-13 17:00N 69°36' E 018°54'3296.3 170 / 61003.3 16.1 7.6 9.4
2019-Aug-13 16:59N 69°39' E 018°58'0 0.0
2019-Aug-13 16:29N 69°39' E 018°58'3 6.4
2019-Aug-13 16:00N 69°36' E 018°54'3281.5 110 / 101003.2 16.1 7.5 9.3
2019-Aug-13 15:59N 69°39' E 018°58'0 0.0
2019-Aug-13 15:29N 69°39' E 018°58'3 6.4
2019-Aug-13 15:00N 69°36' E 018°54'3274.6 110 / 141003.3 16.3 7.8 9.4
2019-Aug-13 14:59N 69°39' E 018°58'0 0.0
2019-Aug-13 14:29N 69°39' E 018°58'3 6.4
2019-Aug-13 14:00N 69°36' E 018°54'3268.1 080 / 121003.7 16.3 8.1 9.4
2019-Aug-13 13:59N 69°39' E 018°58'0 0.0
2019-Aug-13 13:29N 69°39' E 018°58'3 6.4
2019-Aug-13 13:00N 69°36' E 018°54'3250.2 040 / 141003.7 16.2 7.9 9.6
2019-Aug-13 12:59N 69°39' E 018°58'0 0.0
2019-Aug-13 12:29N 69°39' E 018°58'3 6.4
2019-Aug-13 12:00N 69°36' E 018°54'3244.8 020 / 121004.2 16.3 8.1 9.6
2019-Aug-13 11:59N 69°39' E 018°58'0 0.0
2019-Aug-13 11:29N 69°39' E 018°58'3 6.4
2019-Aug-13 11:00N 69°36' E 018°54'3234.6 030 / 101004.3 15.9 8.1 9.6
2019-Aug-13 10:59N 69°39' E 018°58'0 0.0
2019-Aug-13 10:29N 69°39' E 018°58'3 6.4
2019-Aug-13 10:00N 69°36' E 018°54'3229.8 200 / 61004.7 14.6 8.110.0
2019-Aug-13 09:59N 69°39' E 018°58'0 0.0
2019-Aug-13 09:29N 69°39' E 018°58'0 0.0
2019-Aug-13 09:00N 69°39' E 018°58'0 0.9
2019-Aug-13 08:30N 69°38' E 018°58'4 8.8
2019-Aug-13 08:00N 69°35' E 018°50'5473.6
2019-Aug-13 08:00N 69°30' E 018°48'510.2 070 / 21005.7 11.0 8.4 8.1
2019-Aug-13 07:30N 69°32' E 018°35'510.0
2019-Aug-13 07:00N 69°31' E 018°21'2462.6
2019-Aug-13 07:00N 69°30' E 018°18'4 7.8 080 / 191004.7 11.1 8.6 8.8
2019-Aug-13 06:30N 69°31' E 018°07'5 9.8
2019-Aug-13 06:00N 69°34' E 017°56'41121.9
2019-Aug-13 06:00N 69°30' E 017°54'815.8 090 / 81004.7 12.0 9.010.7
2019-Aug-13 05:30N 69°37' E 017°47'5 9.0
2019-Aug-13 05:00N 69°38' E 017°35'3447.2
2019-Aug-13 05:00N 69°36' E 017°30'3 6.4 030 / 191004.1 10.7 8.8 9.6
2019-Aug-13 04:30N 69°37' E 017°22'4 8.9
2019-Aug-13 04:00N 69°36' E 017°10'6628.1
2019-Aug-13 04:00N 69°30' E 017°06'4 9.0 030 / 251003.8 10.3 8.210.0
2019-Aug-13 03:30N 69°34' E 016°59'4 8.8
2019-Aug-13 03:00N 69°32' E 016°48'3191.5
2019-Aug-13 03:00N 69°30' E 016°42'6 5.7 030 / 271003.6 10.4 8.311.4
2019-Aug-13 02:00N 69°28' E 016°27'4295.4
2019-Aug-13 02:00N 69°24' E 016°24'4 7.6 030 / 291003.5 10.3 8.210.5
2019-Aug-13 01:30N 69°27' E 016°16'4 7.9
2019-Aug-13 01:00N 69°25' E 016°06'2157.5
2019-Aug-13 01:00N 69°24' E 016°00'2 3.5 040 / 251003.5 10.0 8.1 9.5
2019-Aug-13 00:30N 69°23' E 015°57'4 7.8
2019-Aug-13 00:00N 69°20' E 015°49'2213.3
2019-Aug-13 00:00N 69°18' E 015°48'3 5.2 040 / 191003.7 10.0 8.3 9.8
2019-Aug-12 23:30N 69°17' E 015°41'4 7.8
2019-Aug-12 23:00N 69°15' E 015°33'3247.1
2019-Aug-12 23:00N 69°12' E 015°30'2 4.1 030 / 211003.6 10.1 8.510.6
2019-Aug-12 22:30N 69°12' E 015°24'4 7.9
2019-Aug-12 22:00N 69°10' E 015°16'4619.7
2019-Aug-12 22:00N 69°06' E 015°12'2 3.9 030 / 211003.2 9.9 8.510.2
2019-Aug-12 21:30N 69°07' E 015°07'4 8.2
2019-Aug-12 21:00N 69°04' E 014°60'41236.6
2019-Aug-12 21:00N 69°00' E 014°54'1 2.4 030 / 231003.1 10.0 8.611.6
2019-Aug-12 20:30N 69°01' E 014°53'4 7.9
2019-Aug-12 20:00N 68°58' E 014°46'4289.8
2019-Aug-12 20:00N 68°54' E 014°42'2 3.5 030 / 231002.6 10.1 8.910.8
2019-Aug-12 19:30N 68°55' E 014°38'5 9.1
2019-Aug-12 19:00N 68°52' E 014°30'4285.5
2019-Aug-12 19:00N 68°48' E 014°24'1 1.9 020 / 251001.7 10.5 9.011.6
2019-Aug-12 18:30N 68°48' E 014°21'4 8.8
2019-Aug-12 18:00N 68°45' E 014°13'3232.6
2019-Aug-12 18:00N 68°42' E 014°12'2 3.8 020 / 231001.1 11.6 9.711.6
2019-Aug-12 17:30N 68°41' E 014°08'5 9.5
2019-Aug-12 17:00N 68°36' E 014°07'055.3
2019-Aug-12 17:00N 68°36' E 014°06'5 9.6 1001.1 12.510.012.2
2019-Aug-12 16:30N 68°31' E 014°06'5 9.5
2019-Aug-12 16:00N 68°27' E 014°05'3324.7
2019-Aug-12 16:00N 68°24' E 014°00'2 3.7 020 / 141001.1 13.510.512.3
2019-Aug-12 15:30N 68°24' E 014°05'2 3.9
2019-Aug-12 15:00N 68°26' E 014°01'2146.9
2019-Aug-12 15:00N 68°24' E 014°00'4 7.3 020 / 121001.3 13.710.312.8
2019-Aug-12 14:30N 68°27' E 013°57'2 3.6
2019-Aug-12 14:00N 68°29' E 013°53'5784.2
2019-Aug-12 14:00N 68°24' E 013°48'713.5 030 / 141001.5 13.710.712.0
2019-Aug-12 13:30N 68°31' E 013°48'0 0.4
2019-Aug-12 13:00N 68°31' E 013°47'21043.6
2019-Aug-12 13:00N 68°30' E 013°42'3 5.6 030 / 121001.6 13.710.912.7
2019-Aug-12 12:30N 68°33' E 013°41'2 3.1
2019-Aug-12 12:00N 68°34' E 013°38'4309.9
2019-Aug-12 12:00N 68°30' E 013°36'510.0 040 / 161001.7 13.310.612.0
2019-Aug-12 11:30N 68°35' E 013°35'3 6.1
2019-Aug-12 11:00N 68°37' E 013°29'2178.1
2019-Aug-12 11:00N 68°36' E 013°24'2 4.0 040 / 141001.8 13.310.611.9
2019-Aug-12 10:30N 68°37' E 013°29'5 9.5
2019-Aug-12 10:00N 68°40' E 013°20'4361.9
2019-Aug-12 10:00N 68°36' E 013°18'817.3 040 / 161002.1 12.910.412.6
2019-Aug-12 09:30N 68°44' E 013°11'0 0.6
2019-Aug-12 09:00N 68°44' E 013°10'2207.4
2019-Aug-12 09:00N 68°42' E 013°06'511.2 040 / 161002.1 12.1 9.812.3
2019-Aug-12 08:30N 68°47' E 012°59'0 0.8
2019-Aug-12 08:00N 68°47' E 012°58'53146.9
2019-Aug-12 08:00N 68°42' E 012°54'817.3 050 / 171002.4 12.510.211.9
2019-Aug-12 07:30N 68°50' E 012°50'1 1.6
2019-Aug-12 07:00N 68°51' E 012°49'3320.1
2019-Aug-12 07:00N 68°48' E 012°48'4 7.5 050 / 161002.3 12.410.311.8
2019-Aug-12 06:30N 68°52' E 012°46'4 7.3
2019-Aug-12 06:00N 68°54' E 012°38'61549.6
2019-Aug-12 06:00N 68°48' E 012°36'612.4 050 / 161002.1 12.110.112.0
2019-Aug-12 05:30N 68°54' E 012°38'0 0.2
2019-Aug-12 05:00N 68°54' E 012°38'151.4
2019-Aug-12 05:00N 68°54' E 012°36'4 8.4 050 / 161002.2 12.310.312.0
2019-Aug-12 04:30N 68°57' E 012°30'510.6
2019-Aug-12 04:00N 69°01' E 012°20'197.8
2019-Aug-12 04:00N 69°00' E 012°18'2 4.3 050 / 161002.5 11.8 9.811.4
2019-Aug-12 03:30N 69°02' E 012°16'0 0.3
2019-Aug-12 03:00N 69°02' E 012°17'3720.0
2019-Aug-12 03:00N 69°00' E 012°12'3 5.4 040 / 141002.7 11.8 9.911.5
2019-Aug-12 02:30N 69°02' E 012°17'0 0.0
2019-Aug-12 02:00N 69°02' E 012°17'3176.5
2019-Aug-12 02:00N 69°00' E 012°12'3 5.3 050 / 121002.7 12.1 9.911.4
2019-Aug-12 01:29N 69°02' E 012°17'3 5.3
2019-Aug-12 01:00N 69°00' E 012°12'3141.2 060 / 141003.1 12.510.011.3
2019-Aug-12 00:58N 69°02' E 012°16'510.3
2019-Aug-12 00:30N 69°05' E 012°06'4 8.2
2019-Aug-12 00:00N 69°08' E 011°57'2247.1
2019-Aug-12 00:00N 69°06' E 011°54'2 4.6 060 / 81003.1 11.8 9.710.9
2019-Aug-11 23:30N 69°08' E 011°57'0 0.1
2019-Aug-11 23:00N 69°08' E 011°57'2630.6
2019-Aug-11 23:00N 69°06' E 011°54'611.8 070 / 141003.1 12.0 9.710.6
2019-Aug-11 22:30N 69°11' E 011°47'5 9.3
2019-Aug-11 22:00N 69°14' E 011°37'3204.8
2019-Aug-11 22:00N 69°12' E 011°36'2 4.6 060 / 101003.2 11.8 9.711.2
2019-Aug-11 21:30N 69°14' E 011°37'2 4.6
2019-Aug-11 21:00N 69°12' E 011°36'2432.5 060 / 141003.2 11.9 9.811.2
2019-Aug-11 20:59N 69°14' E 011°37'8 9.2
2019-Aug-11 20:09N 69°20' E 011°22'214.6
2019-Aug-11 20:00N 69°18' E 011°18'1010.4 060 / 141003.2 11.4 9.610.6
2019-Aug-11 19:00N 69°24' E 010°54'5 6.4 060 / 141003.2 11.5 9.710.8
2019-Aug-11 18:11N 69°29' E 010°57'527.4
2019-Aug-11 18:00N 69°24' E 010°54'510.1 060 / 121003.3 11.4 9.610.7
2019-Aug-11 17:30N 69°29' E 010°57'510.4
2019-Aug-11 17:00N 69°30' E 010°42'9 8.7 070 / 161003.2 11.5 9.511.0
2019-Aug-11 16:00N 69°36' E 010°24'4 4.2 060 / 171003.2 11.0 9.310.9
2019-Aug-11 15:00N 69°36' E 010°12'0 0.0 070 / 161003.6 11.0 9.110.4
2019-Aug-11 14:00N 69°36' E 010°12'0 0.0 070 / 171003.5 11.0 9.010.3
2019-Aug-11 13:00N 69°36' E 010°12'0 0.0 070 / 171003.5 10.9 9.010.3
2019-Aug-11 12:00N 69°36' E 010°12'6 6.4 070 / 191004.3 10.9 8.910.3
2019-Aug-11 11:00N 69°42' E 010°06'1010.2 070 / 231004.0 10.5 8.510.0
2019-Aug-11 10:00N 69°48' E 009°42'7 7.3 070 / 291003.7 10.5 8.510.4
2019-Aug-11 09:00N 69°54' E 009°30'0 0.0 070 / 291004.7 10.5 8.210.6
2019-Aug-11 08:00N 69°54' E 009°30'9 8.6 060 / 311004.6 10.4 8.110.6
2019-Aug-11 07:00N 70°00' E 009°12'1010.2 060 / 351004.7 10.0 7.810.9
2019-Aug-11 06:00N 70°06' E 008°48'7 7.3 060 / 371005.0 9.7 7.510.5
2019-Aug-11 05:00N 70°12' E 008°36'7 7.2 060 / 371005.8 9.5 6.5 9.8
2019-Aug-11 04:00N 70°18' E 008°24'6 6.1 060 / 351005.8 9.3 6.010.0
2019-Aug-11 03:00N 70°18' E 008°06'6 6.3 060 / 351007.3 9.0 5.4 9.9
2019-Aug-11 02:00N 70°12' E 008°00'7 7.3 060 / 351007.6 8.9 5.1 9.8
2019-Aug-11 01:00N 70°06' E 007°48'6 6.3 060 / 351007.7 8.9 4.7 9.6
2019-Aug-11 00:00N 70°00' E 007°42'7 7.3 060 / 311008.4 9.1 5.0 9.8
2019-Aug-10 23:00N 69°54' E 007°30'6 6.3 060 / 331008.2 9.3 5.1 9.7
2019-Aug-10 22:00N 69°48' E 007°24'7 7.3 060 / 331008.3 9.5 5.110.2
2019-Aug-10 21:00N 69°42' E 007°12'6 6.4 060 / 331008.6 9.3 4.910.3
2019-Aug-10 20:00N 69°36' E 007°06'7 7.3 060 / 351008.2 9.3 4.910.2
2019-Aug-10 19:00N 69°30' E 006°54'7 7.3 060 / 351008.2 9.3 4.810.5
2019-Aug-10 18:00N 69°24' E 006°42'6 6.4 060 / 331008.4 9.3 5.010.3
2019-Aug-10 17:00N 69°18' E 006°36'7 7.4 060 / 331008.6 9.5 5.111.0
2019-Aug-10 16:00N 69°12' E 006°24'6 6.4 060 / 351007.9 9.8 5.311.1
2019-Aug-10 15:00N 69°06' E 006°18'7 7.4 070 / 331008.2 10.0 5.711.4
2019-Aug-10 14:00N 69°00' E 006°06'6 6.4 070 / 311008.5 10.4 6.211.0
2019-Aug-10 13:00N 68°54' E 006°00'7 7.4 070 / 311008.6 10.3 5.811.0
2019-Aug-10 12:00N 68°48' E 005°48'7 7.4 070 / 311008.6 10.3 5.811.1
2019-Aug-10 11:00N 68°42' E 005°36'   070 / 311008.5 10.3 5.611.4

Dump ship's entire track history